Time;durP1;ratioP1;P1;durP2;ratioP2;P2;SDS_P1;SDS_P2;PMS_P1;PMS_P2;Temp;Humidity;BMP_temperature;BMP_pressure;BME280_temperature;BME280_humidity;BME280_pressure;Samples;Min_cycle;Max_cycle;Signal;HPM_P1;HPM_P2
2022/02/21 00:01:11;;;;;;;9.77;2.38;;;;;;;5.37;100.00;99711.03;5038714;28;20061;-73
2022/02/21 00:03:38;;;;;;;14.43;3.50;;;;;;;5.45;100.00;99722.28;5038312;28;20048;-72
2022/02/21 00:06:06;;;;;;;9.63;3.28;;;;;;;5.43;100.00;99748.78;5040347;28;20052;-72
2022/02/21 00:08:34;;;;;;;12.60;3.22;;;;;;;5.39;100.00;99739.16;5041082;28;20110;-73
2022/02/21 00:11:03;;;;;;;13.73;3.10;;;;;;;5.48;100.00;99750.41;5042266;28;20563;-72
2022/02/21 00:13:32;;;;;;;16.08;3.10;;;;;;;5.41;100.00;99757.66;5038735;28;20041;-73
2022/02/21 00:15:59;;;;;;;20.50;3.25;;;;;;;5.30;100.00;99759.75;5040093;28;20078;-73
2022/02/21 00:18:27;;;;;;;11.68;3.85;;;;;;;5.26;100.00;99760.72;5040582;28;20476;-73
2022/02/21 00:20:55;;;;;;;12.20;3.13;;;;;;;5.21;100.00;99768.78;5039916;28;20077;-71
2022/02/21 00:23:23;;;;;;;10.52;3.42;;;;;;;5.23;100.00;99782.84;5038652;28;20128;-71
2022/02/21 00:25:51;;;;;;;13.02;3.13;;;;;;;5.15;100.00;99771.59;5041838;28;20137;-72
2022/02/21 00:28:18;;;;;;;10.18;2.20;;;;;;;5.20;100.00;99778.50;5039719;28;20060;-72
2022/02/21 00:30:48;;;;;;;14.43;3.17;;;;;;;5.19;100.00;99781.19;5042850;28;20095;-72
2022/02/21 00:33:15;;;;;;;13.68;3.55;;;;;;;5.16;100.00;99798.00;5038275;28;20045;-72
2022/02/21 00:35:43;;;;;;;11.73;2.85;;;;;;;5.15;100.00;99783.03;5038537;28;20051;-72
2022/02/21 00:38:11;;;;;;;11.05;2.42;;;;;;;5.03;100.00;99807.16;5038629;28;20048;-71
2022/02/21 00:40:39;;;;;;;8.45;2.40;;;;;;;5.04;100.00;99815.06;5038448;28;20139;-71
2022/02/21 00:43:06;;;;;;;9.85;2.40;;;;;;;5.08;100.00;99823.78;5042832;28;20127;-71
2022/02/21 00:45:37;;;;;;;10.30;2.30;;;;;;;5.03;100.00;99823.88;5038620;28;20049;-71
2022/02/21 00:48:07;;;;;;;9.55;2.38;;;;;;;5.12;100.00;99836.00;5041708;28;20053;-71
2022/02/21 00:50:34;;;;;;;20.20;3.88;;;;;;;5.10;100.00;99823.75;5037630;28;20658;-71
2022/02/21 00:53:03;;;;;;;10.07;3.38;;;;;;;5.07;100.00;99840.53;5037060;28;20062;-72
2022/02/21 00:55:34;;;;;;;17.02;3.10;;;;;;;5.04;100.00;99853.88;5040267;28;20045;-72
2022/02/21 00:58:03;;;;;;;12.60;2.47;;;;;;;5.13;100.00;99843.03;5037667;28;20483;-71
2022/02/21 01:00:31;;;;;;;14.07;2.42;;;;;;;5.08;100.00;99837.00;5039286;28;20147;-72
2022/02/21 01:03:00;;;;;;;12.40;2.80;;;;;;;5.09;100.00;99835.22;5039198;28;20589;-71
2022/02/21 01:05:29;;;;;;;10.30;2.90;;;;;;;5.02;100.00;99847.72;5039469;28;20350;-72
2022/02/21 01:08:06;;;;;;;12.82;2.80;;;;;;;5.09;100.00;99857.25;5039274;28;20049;-73
2022/02/21 01:10:39;;;;;;;12.57;2.95;;;;;;;5.13;100.00;99852.75;5041177;28;20098;-72
2022/02/21 01:13:08;;;;;;;13.90;3.40;;;;;;;5.10;100.00;99872.19;5040962;28;20048;-74
2022/02/21 01:15:38;;;;;;;9.45;3.05;;;;;;;5.02;100.00;99861.84;5041779;28;20060;-74
2022/02/21 01:18:11;;;;;;;14.05;4.35;;;;;;;4.99;100.00;99855.75;5044530;28;20041;-72
2022/02/21 01:20:43;;;;;;;11.93;2.83;;;;;;;4.98;100.00;99865.44;5043632;28;20057;-71
2022/02/21 01:23:11;;;;;;;11.35;2.40;;;;;;;4.93;100.00;99879.69;5043031;28;20080;-72
2022/02/21 01:25:44;;;;;;;17.48;3.00;;;;;;;4.86;100.00;99874.53;5039002;28;20059;-72
2022/02/21 01:28:11;;;;;;;11.88;3.05;;;;;;;4.89;100.00;99880.66;5040257;28;20049;-71
2022/02/21 01:30:39;;;;;;;15.50;3.10;;;;;;;4.89;100.00;99889.47;5038417;28;20071;-72
2022/02/21 01:33:07;;;;;;;10.43;2.55;;;;;;;4.88;100.00;99826.06;5040007;28;20055;-71
2022/02/21 01:35:35;;;;;;;16.73;3.67;;;;;;;4.82;100.00;99891.38;5037510;28;20199;-72
2022/02/21 01:38:04;;;;;;;8.68;2.38;;;;;;;4.74;100.00;99895.13;5037595;28;20560;-71
2022/02/21 01:40:32;;;;;;;8.07;2.15;;;;;;;4.78;100.00;99888.84;5038646;28;20131;-71
2022/02/21 01:43:02;;;;;;;13.48;2.88;;;;;;;4.77;100.00;99903.00;5038700;28;20136;-72
2022/02/21 01:45:30;;;;;;;13.32;3.22;;;;;;;4.79;100.00;99888.81;5035961;28;20641;-71
2022/02/21 01:47:58;;;;;;;14.00;2.97;;;;;;;4.73;100.00;99872.22;5037523;28;20077;-71
2022/02/21 01:50:26;;;;;;;10.32;2.67;;;;;;;4.72;100.00;99894.28;5037022;28;20377;-69
2022/02/21 01:52:54;;;;;;;7.32;2.33;;;;;;;4.75;100.00;99881.88;5035640;28;20053;-69
2022/02/21 01:55:24;;;;;;;10.55;3.10;;;;;;;4.81;100.00;99902.84;5038905;28;20135;-69
2022/02/21 01:57:52;;;;;;;19.55;3.25;;;;;;;4.75;100.00;99881.88;5041096;28;20468;-69
2022/02/21 02:00:20;;;;;;;11.95;3.20;;;;;;;4.80;99.73;99900.25;5039361;28;20561;-69
2022/02/21 02:02:48;;;;;;;11.07;2.55;;;;;;;4.78;99.77;99902.06;5037859;28;20055;-69
2022/02/21 02:05:16;;;;;;;15.60;2.97;;;;;;;4.79;98.55;99896.75;5037311;28;20065;-71
2022/02/21 02:07:45;;;;;;;17.45;3.08;;;;;;;4.83;97.76;99893.09;5037237;28;20645;-69
2022/02/21 02:10:14;;;;;;;13.77;3.22;;;;;;;4.84;94.97;99892.22;5037087;28;20055;-69
2022/02/21 02:12:43;;;;;;;14.38;3.20;;;;;;;4.83;96.24;99901.03;5037957;28;20049;-69
2022/02/21 02:15:13;;;;;;;6.53;2.10;;;;;;;4.80;96.38;99900.25;5038613;28;20041;-71
2022/02/21 02:17:41;;;;;;;11.50;2.80;;;;;;;4.84;96.16;99901.94;5037659;28;20045;-69
2022/02/21 02:20:10;;;;;;;10.95;3.00;;;;;;;4.84;96.57;99905.44;5034172;28;20063;-72
2022/02/21 02:22:41;;;;;;;11.23;2.70;;;;;;;4.83;98.37;99926.63;5039002;28;20156;-71
2022/02/21 02:25:09;;;;;;;7.88;2.60;;;;;;;4.87;94.02;99899.22;5036354;28;20053;-70
2022/02/21 02:27:37;;;;;;;10.43;3.17;;;;;;;4.92;90.73;99922.88;5040181;28;20481;-70
2022/02/21 02:30:06;;;;;;;9.02;2.53;;;;;;;4.84;94.50;99900.16;5038060;28;20120;-70
2022/02/21 02:32:34;;;;;;;15.15;3.03;;;;;;;4.85;90.16;99896.59;5037520;28;20045;-71
2022/02/21 02:35:05;;;;;;;9.50;2.78;;;;;;;4.84;88.19;99886.94;5038567;28;20523;-70
2022/02/21 02:37:33;;;;;;;10.68;2.88;;;;;;;4.83;87.18;99898.41;5041087;28;20164;-70
2022/02/21 02:40:03;;;;;;;13.30;2.85;;;;;;;4.82;91.06;99909.03;5041632;28;20057;-71
2022/02/21 02:42:31;;;;;;;11.18;2.80;;;;;;;4.83;91.36;99901.03;5041287;28;20041;-72
2022/02/21 02:44:59;;;;;;;16.92;3.63;;;;;;;4.84;93.32;99897.50;5040908;28;20148;-72
2022/02/21 02:47:26;;;;;;;14.45;4.15;;;;;;;4.79;94.77;99915.25;5042129;28;20140;-73
2022/02/21 02:49:54;;;;;;;17.27;3.38;;;;;;;4.82;95.86;99948.69;5044057;28;20527;-72
2022/02/21 02:52:22;;;;;;;8.80;3.42;;;;;;;4.82;89.50;99904.59;5040844;28;20128;-72
2022/02/21 02:54:50;;;;;;;12.50;3.17;;;;;;;4.80;91.07;99913.47;5043172;28;20041;-72
2022/02/21 02:57:19;;;;;;;6.97;2.58;;;;;;;4.79;90.81;99925.81;5041518;28;20057;-72
2022/02/21 02:59:46;;;;;;;16.05;3.92;;;;;;;4.76;92.26;99909.16;5041593;28;20515;-72
2022/02/21 03:02:14;;;;;;;16.70;3.15;;;;;;;4.79;93.42;99931.09;5042434;28;20222;-72
2022/02/21 03:04:42;;;;;;;17.75;3.58;;;;;;;4.82;90.69;99948.69;5039380;28;20227;-73
2022/02/21 03:07:10;;;;;;;10.02;2.70;;;;;;;4.82;91.87;99935.47;5040534;28;20130;-73
2022/02/21 03:09:38;;;;;;;12.77;3.10;;;;;;;4.75;95.09;99928.56;5041105;28;20089;-72
2022/02/21 03:12:07;;;;;;;11.73;3.03;;;;;;;4.71;93.29;99937.47;5041620;28;20080;-73
2022/02/21 03:14:36;;;;;;;12.95;2.78;;;;;;;4.70;92.96;99933.06;5043767;28;20107;-72
2022/02/21 03:17:04;;;;;;;14.93;3.35;;;;;;;4.63;93.15;99919.13;5040033;28;20046;-73
2022/02/21 03:19:56;;;;;;;11.93;3.28;;;;;;;4.62;93.72;99920.06;5041864;28;20052;-72
2022/02/21 03:22:24;;;;;;;23.73;4.55;;;;;;;4.59;94.31;99913.03;5043504;28;20055;-72
2022/02/21 03:24:53;;;;;;;11.07;2.80;;;;;;;4.64;89.52;99929.66;5044460;28;20488;-72
2022/02/21 03:27:21;;;;;;;12.27;2.88;;;;;;;4.59;88.19;99933.31;5042028;28;20059;-72
2022/02/21 03:29:50;;;;;;;12.43;2.78;;;;;;;4.59;86.86;99963.25;5040633;28;20041;-73
2022/02/21 03:32:18;;;;;;;8.57;2.58;;;;;;;4.54;80.33;99929.91;5041886;28;20128;-72
2022/02/21 03:35:03;;;;;;;11.63;2.45;;;;;;;4.51;81.29;99944.03;5040395;28;20323;-72
2022/02/21 03:37:30;;;;;;;10.93;2.83;;;;;;;4.52;80.20;99934.38;5043681;28;20115;-72
2022/02/21 03:39:58;;;;;;;14.15;2.70;;;;;;;4.47;81.31;99927.38;5043307;28;20077;-72
2022/02/21 03:42:26;;;;;;;6.90;2.78;;;;;;;4.52;79.82;99937.88;5041980;28;20530;-72
2022/02/21 03:44:55;;;;;;;9.13;2.58;;;;;;;4.58;77.38;99932.47;5043774;28;20352;-73
2022/02/21 03:47:23;;;;;;;10.52;2.47;;;;;;;4.54;77.51;99925.50;5041046;28;20053;-72
2022/02/21 03:49:51;;;;;;;10.65;3.08;;;;;;;4.48;78.86;99921.22;5040955;28;20065;-71
2022/02/21 03:52:19;;;;;;;11.57;2.85;;;;;;;4.53;79.76;99917.59;5043375;28;20059;-72
2022/02/21 03:54:47;;;;;;;7.68;2.53;;;;;;;4.61;80.06;99923.59;5041961;28;20052;-72
2022/02/21 03:57:16;;;;;;;8.90;2.75;;;;;;;4.61;78.82;99932.38;5040353;28;20076;-72
2022/02/21 03:59:44;;;;;;;12.68;3.05;;;;;;;4.55;80.39;99911.38;5041286;28;20500;-72
2022/02/21 04:02:13;;;;;;;11.73;3.13;;;;;;;4.52;79.75;99908.81;5038011;28;20516;-72
2022/02/21 04:04:42;;;;;;;11.32;2.60;;;;;;;4.47;80.12;99915.97;5039362;28;20412;-72
2022/02/21 04:07:10;;;;;;;8.32;2.38;;;;;;;4.43;79.27;99919.59;5040978;28;21736;-72
2022/02/21 04:09:38;;;;;;;8.40;2.15;;;;;;;4.41;80.23;99922.25;5043055;28;20055;-72
2022/02/21 04:12:08;;;;;;;10.80;2.20;;;;;;;4.34;80.75;99914.47;5039361;28;20148;-72
2022/02/21 04:14:36;;;;;;;14.35;3.00;;;;;;;4.33;82.03;99912.75;5040554;28;20045;-72
2022/02/21 04:17:04;;;;;;;12.95;3.00;;;;;;;4.36;81.79;99918.84;5037956;28;20049;-72
2022/02/21 04:19:33;;;;;;;6.35;2.33;;;;;;;4.33;81.91;99936.53;5043024;28;20085;-72
2022/02/21 04:22:01;;;;;;;11.02;2.53;;;;;;;4.35;82.61;99918.88;5040961;28;20045;-72
2022/02/21 04:24:29;;;;;;;14.77;3.78;;;;;;;4.29;83.71;99935.69;5042040;28;20040;-71
2022/02/21 04:26:56;;;;;;;9.57;2.08;;;;;;;4.33;84.16;99940.03;5041222;28;20804;-72
2022/02/21 04:29:24;;;;;;;11.60;2.95;;;;;;;4.34;84.77;99946.19;5039822;28;20049;-72
2022/02/21 04:31:53;;;;;;;14.38;2.80;;;;;;;4.34;85.32;99931.19;5041901;28;20037;-73
2022/02/21 04:34:21;;;;;;;14.98;2.70;;;;;;;4.37;84.64;99946.13;5040108;28;20099;-72
2022/02/21 04:36:51;;;;;;;8.65;2.30;;;;;;;4.40;83.52;99943.44;5041762;28;20143;-73
2022/02/21 04:39:18;;;;;;;16.80;3.75;;;;;;;4.37;83.76;99932.91;5041735;28;20053;-74
2022/02/21 04:41:46;;;;;;;12.60;2.90;;;;;;;4.38;84.00;99935.53;5040077;28;20079;-72
2022/02/21 04:44:15;;;;;;;12.98;2.72;;;;;;;4.35;85.51;99943.50;5039265;28;20325;-71
2022/02/21 04:46:43;;;;;;;11.52;3.05;;;;;;;4.41;86.30;99929.28;5039204;28;20143;-72
2022/02/21 04:49:11;;;;;;;17.90;3.03;;;;;;;4.45;86.69;99909.84;5039046;28;20152;-71
2022/02/21 04:51:39;;;;;;;10.90;2.97;;;;;;;4.45;86.32;99923.91;5046532;28;20080;-71
2022/02/21 04:54:08;;;;;;;11.35;2.67;;;;;;;4.38;85.46;99914.41;5036560;28;20501;-73
2022/02/21 04:56:38;;;;;;;12.57;3.33;;;;;;;4.36;85.62;99924.13;5037115;28;20115;-73
2022/02/21 04:59:06;;;;;;;9.68;3.20;;;;;;;4.34;85.17;99915.34;5041040;28;20122;-73
2022/02/21 05:01:34;;;;;;;13.50;2.42;;;;;;;4.31;85.51;99907.50;5041655;28;20049;-73
2022/02/21 05:04:01;;;;;;;14.52;2.80;;;;;;;4.29;84.53;99907.53;5040033;28;20531;-73
2022/02/21 05:06:30;;;;;;;12.32;2.92;;;;;;;4.21;85.50;99913.88;5040750;28;20084;-73
2022/02/21 05:08:58;;;;;;;11.02;3.50;;;;;;;4.30;84.16;99921.59;5036951;28;20087;-73
2022/02/21 05:11:27;;;;;;;11.98;2.25;;;;;;;4.29;85.39;99898.72;5042063;28;20177;-73
2022/02/21 05:13:55;;;;;;;13.27;2.58;;;;;;;4.18;85.41;99879.63;5038738;28;20055;-74
2022/02/21 05:16:28;;;;;;;28.45;3.58;;;;;;;4.23;84.59;99896.22;5038385;28;20577;-73
2022/02/21 05:19:02;;;;;;;11.38;2.50;;;;;;;4.23;83.64;99880.38;5038387;28;20041;-73
2022/02/21 05:21:30;;;;;;;10.88;2.70;;;;;;;4.21;83.49;99887.47;5038421;28;20077;-73
2022/02/21 05:23:58;;;;;;;10.95;3.10;;;;;;;4.22;83.92;99899.75;5039480;28;20087;-73
2022/02/21 05:26:27;;;;;;;17.98;3.83;;;;;;;4.20;84.25;99885.72;5036715;28;20128;-73
2022/02/21 05:28:55;;;;;;;18.35;3.33;;;;;;;4.22;83.21;99881.28;5038958;28;20488;-73
2022/02/21 05:31:23;;;;;;;15.13;2.55;;;;;;;4.25;82.58;99879.44;5039807;28;20049;-74
2022/02/21 05:33:51;;;;;;;11.23;2.45;;;;;;;4.21;83.20;99887.47;5039910;28;20052;-73
2022/02/21 05:36:20;;;;;;;12.77;2.63;;;;;;;4.20;83.32;99864.59;5037100;28;20048;-74
2022/02/21 05:38:48;;;;;;;20.20;3.75;;;;;;;4.24;82.58;99890.91;5036844;28;20555;-73
2022/02/21 05:41:16;;;;;;;8.98;2.25;;;;;;;4.25;83.25;99870.66;5038031;28;20048;-73
2022/02/21 05:43:45;;;;;;;13.88;2.83;;;;;;;4.21;83.78;99880.41;5036100;28;20171;-74
2022/02/21 05:46:14;;;;;;;12.65;3.20;;;;;;;4.17;85.06;99865.56;5039449;28;20041;-73
2022/02/21 05:48:42;;;;;;;10.88;2.72;;;;;;;4.16;84.82;99849.75;5039292;28;20084;-74
2022/02/21 05:51:09;;;;;;;13.93;2.72;;;;;;;4.16;84.96;99876.16;5036963;28;20132;-73
2022/02/21 05:53:41;;;;;;;14.60;3.03;;;;;;;4.17;84.27;99855.00;5040498;28;21888;-73
2022/02/21 05:56:09;;;;;;;11.35;2.60;;;;;;;4.22;84.32;99868.06;5038894;28;20547;-73
2022/02/21 05:58:37;;;;;;;10.43;2.63;;;;;;;4.17;84.86;99856.75;5038804;28;20134;-73
2022/02/21 06:01:06;;;;;;;13.48;3.15;;;;;;;4.19;84.85;99861.09;5041730;28;20112;-73
2022/02/21 06:03:39;;;;;;;9.18;2.47;;;;;;;4.19;84.06;99861.09;5037334;28;20163;-72
2022/02/21 06:06:07;;;;;;;11.00;2.63;;;;;;;4.24;84.07;99853.06;5037563;28;20041;-72
2022/02/21 06:08:35;;;;;;;8.80;2.58;;;;;;;4.22;85.22;99855.75;5040921;28;20049;-73
2022/02/21 06:11:03;;;;;;;12.57;2.83;;;;;;;4.22;85.06;99839.91;5036650;28;20048;-72
2022/02/21 06:13:31;;;;;;;11.85;2.80;;;;;;;4.16;85.53;99849.75;5034783;28;20041;-72
2022/02/21 06:15:58;;;;;;;8.40;2.70;;;;;;;4.14;85.02;99841.84;5040803;28;20156;-72
2022/02/21 06:18:28;;;;;;;18.40;3.85;;;;;;;4.07;85.41;99845.50;5037904;28;20146;-73
2022/02/21 06:20:56;;;;;;;12.88;2.90;;;;;;;4.00;86.71;99852.72;5037688;28;20076;-73
2022/02/21 06:23:24;;;;;;;13.27;2.92;;;;;;;3.99;86.50;99842.19;5037203;28;20072;-73
2022/02/21 06:25:52;;;;;;;13.88;2.90;;;;;;;4.05;86.24;99840.28;5038574;28;20041;-73
2022/02/21 06:28:24;;;;;;;11.00;3.33;;;;;;;4.06;86.84;99834.09;5037392;28;20050;-73
2022/02/21 06:30:52;;;;;;;9.98;2.75;;;;;;;4.05;86.00;99837.63;5041983;28;20546;-73
2022/02/21 06:33:21;;;;;;;15.48;3.63;;;;;;;4.07;86.07;99856.94;5036985;28;20468;-72
2022/02/21 06:35:50;;;;;;;15.90;3.15;;;;;;;4.13;87.29;99836.59;5037523;28;20057;-74
2022/02/21 06:38:18;;;;;;;16.42;4.53;;;;;;;4.16;87.03;99852.38;5037470;28;20546;-72
2022/02/21 06:40:46;;;;;;;13.82;2.88;;;;;;;4.18;87.36;99819.75;5035357;28;20845;-73
2022/02/21 06:43:16;;;;;;;15.35;2.65;;;;;;;4.21;87.48;99840.81;5037170;28;20188;-74
2022/02/21 06:45:45;;;;;;;18.08;3.35;;;;;;;4.22;87.47;99836.38;5037048;28;20190;-73
2022/02/21 06:48:13;;;;;;;14.82;3.10;;;;;;;4.25;87.71;99809.91;5035438;28;20056;-74
2022/02/21 06:51:06;;;;;;;15.50;2.85;;;;;;;4.27;88.39;99806.34;5036707;28;20142;-73
2022/02/21 06:53:58;;;;;;;14.38;2.55;;;;;;;4.37;88.07;99817.56;5037363;28;20134;-74
2022/02/21 06:56:25;;;;;;;11.75;3.00;;;;;;;4.36;89.06;99815.84;5039754;28;20106;-73
2022/02/21 06:58:54;;;;;;;12.75;2.97;;;;;;;4.30;90.08;99806.25;5037322;28;20053;-73
2022/02/21 07:01:22;;;;;;;14.68;3.22;;;;;;;4.36;89.08;99813.19;5039553;28;20076;-73
2022/02/21 07:03:50;;;;;;;15.43;3.13;;;;;;;4.40;88.71;99809.56;5041912;28;20576;-73
2022/02/21 07:06:19;;;;;;;14.27;3.00;;;;;;;4.48;88.04;99799.69;5037299;28;20048;-74
2022/02/21 07:08:47;;;;;;;17.75;2.92;;;;;;;4.52;87.78;99792.56;5036844;28;20059;-74
2022/02/21 07:11:15;;;;;;;21.10;3.53;;;;;;;4.59;86.42;99793.28;5038476;28;20080;-74
2022/02/21 07:13:43;;;;;;;13.45;4.03;;;;;;;4.65;86.58;99794.00;5039164;28;20056;-74
2022/02/21 07:16:11;;;;;;;10.90;2.80;;;;;;;4.64;86.45;99792.25;5040080;28;20045;-73
2022/02/21 07:18:48;;;;;;;13.13;3.47;;;;;;;4.69;86.73;99781.59;5039738;28;20088;-73
2022/02/21 07:21:37;;;;;;;11.48;3.80;;;;;;;4.74;86.19;99779.69;5042676;28;20040;-73
2022/02/21 07:24:18;;;;;;;12.07;3.10;;;;;;;4.78;86.49;99802.47;5043613;28;20045;-73
2022/02/21 07:26:51;;;;;;;10.10;3.03;;;;;;;4.93;85.94;99787.16;5041636;28;20055;-73
2022/02/21 07:29:22;;;;;;;18.85;3.67;;;;;;;4.94;86.64;99767.72;5039747;28;20387;-73
2022/02/21 07:31:52;;;;;;;13.07;2.88;;;;;;;5.03;85.97;99781.59;5042446;28;20045;-73
2022/02/21 07:34:20;;;;;;;18.00;3.35;;;;;;;5.09;85.94;99775.28;5038954;28;20049;-73
2022/02/21 07:36:49;;;;;;;15.57;3.83;;;;;;;5.11;86.61;99777.88;5037849;28;20051;-73
2022/02/21 07:39:18;;;;;;;12.30;2.83;;;;;;;5.17;86.27;99754.78;5039600;28;20049;-73
2022/02/21 07:41:46;;;;;;;15.48;4.00;;;;;;;5.17;86.94;99743.34;5040475;28;20041;-73
2022/02/21 07:44:14;;;;;;;12.52;3.75;;;;;;;5.19;87.13;99752.09;5038539;28;20202;-73
2022/02/21 07:46:42;;;;;;;19.70;3.92;;;;;;;5.17;89.12;99764.50;5040472;28;20076;-73
2022/02/21 07:49:09;;;;;;;18.15;4.30;;;;;;;5.09;90.30;99748.84;5038608;28;20055;-73
2022/02/21 07:51:37;;;;;;;19.85;5.00;;;;;;;5.01;91.78;99751.69;5039820;28;20125;-73
2022/02/21 07:54:06;;;;;;;14.10;3.25;;;;;;;4.95;93.60;99732.47;5036591;28;20350;-73
2022/02/21 07:56:55;;;;;;;17.75;3.35;;;;;;;4.84;95.71;99738.91;5039875;28;20060;-73
2022/02/21 07:59:26;;;;;;;14.10;2.88;;;;;;;4.82;99.59;99740.72;5043239;28;20636;-75
2022/02/21 08:01:54;;;;;;;12.43;3.40;;;;;;;4.78;100.00;99746.13;5039325;28;20255;-75
2022/02/21 08:04:25;;;;;;;15.20;4.13;;;;;;;4.67;100.00;99709.41;5038245;28;20048;-71
2022/02/21 08:06:53;;;;;;;14.07;3.60;;;;;;;4.56;100.00;99717.59;5041477;28;20084;-70
2022/02/21 08:09:23;;;;;;;18.77;4.03;;;;;;;4.54;100.00;99710.63;5039845;28;20092;-69
2022/02/21 08:11:52;;;;;;;14.10;3.47;;;;;;;4.52;100.00;99712.44;5038465;28;20064;-70
2022/02/21 08:14:22;;;;;;;18.45;4.10;;;;;;;4.46;100.00;99716.97;5038996;28;20094;-71
2022/02/21 08:16:50;;;;;;;19.60;4.15;;;;;;;4.39;100.00;99722.44;5035631;28;20045;-70
2022/02/21 08:19:18;;;;;;;22.63;3.90;;;;;;;4.45;100.00;99719.66;5040154;28;20226;-70
2022/02/21 08:21:45;;;;;;;13.93;4.45;;;;;;;4.34;100.00;99690.84;5038113;28;20055;-69
2022/02/21 08:24:13;;;;;;;21.58;4.97;;;;;;;4.33;100.00;99690.91;5044326;28;20095;-71
2022/02/21 08:26:42;;;;;;;20.88;3.65;;;;;;;4.36;100.00;99682.88;5045548;28;20450;-72
2022/02/21 08:29:10;;;;;;;30.98;4.63;;;;;;;4.36;100.00;99667.94;5041026;28;20084;-71
2022/02/21 08:31:40;;;;;;;20.98;4.50;;;;;;;4.39;100.00;99672.25;5038026;28;20089;-71
2022/02/21 08:34:08;;;;;;;14.45;4.05;;;;;;;4.34;100.00;99672.34;5040228;28;20128;-71
2022/02/21 08:36:59;;;;;;;20.60;5.15;;;;;;;4.38;100.00;99684.59;5037879;28;20068;-71
2022/02/21 08:39:27;;;;;;;19.67;4.80;;;;;;;4.48;100.00;99656.19;5041066;28;20413;-71
2022/02/21 08:41:56;;;;;;;30.25;4.28;;;;;;;4.55;100.00;99643.69;5040318;28;20587;-71
2022/02/21 08:44:25;;;;;;;15.93;3.45;;;;;;;4.52;100.00;99641.97;5038586;28;20148;-71
2022/02/21 08:46:53;;;;;;;18.10;3.72;;;;;;;4.55;100.00;99646.31;5032927;28;20057;-71
2022/02/21 08:49:21;;;;;;;23.70;4.35;;;;;;;4.57;100.00;99645.34;5035308;28;20420;-71
2022/02/21 08:51:48;;;;;;;22.65;5.10;;;;;;;4.60;100.00;99647.06;5037606;28;20049;-71
2022/02/21 08:54:19;;;;;;;16.15;4.05;;;;;;;4.62;100.00;99650.53;5035082;28;20135;-71
2022/02/21 08:56:47;;;;;;;15.48;3.92;;;;;;;4.68;100.00;99631.84;5035918;28;20091;-71
2022/02/21 08:59:17;;;;;;;18.25;4.18;;;;;;;4.70;100.00;99655.59;5035941;28;20049;-71
2022/02/21 09:01:47;;;;;;;18.83;4.03;;;;;;;4.77;100.00;99623.69;5037453;28;20045;-70
2022/02/21 09:04:32;;;;;;;25.58;4.13;;;;;;;4.96;100.00;99637.25;5039500;28;20087;-71
2022/02/21 09:07:00;;;;;;;24.75;4.97;;;;;;;5.03;100.00;99614.16;5035122;28;20044;-71
2022/02/21 09:09:28;;;;;;;12.65;3.75;;;;;;;5.00;100.00;99630.94;5038943;28;20052;-71
2022/02/21 09:11:55;;;;;;;18.00;4.63;;;;;;;4.98;100.00;99619.56;5040711;28;20136;-71
2022/02/21 09:14:25;;;;;;;17.88;4.93;;;;;;;5.01;100.00;99618.63;5041059;28;20049;-72
2022/02/21 09:16:53;;;;;;;25.55;4.80;;;;;;;5.00;100.00;99616.88;5039823;28;20041;-71
2022/02/21 09:19:20;;;;;;;21.38;4.55;;;;;;;4.98;100.00;99616.91;5043844;28;20065;-71
2022/02/21 09:21:48;;;;;;;26.23;5.38;;;;;;;5.01;100.00;99603.63;5036695;28;20087;-71
2022/02/21 09:24:16;;;;;;;19.40;5.50;;;;;;;4.98;100.00;99613.41;5041396;28;20136;-71
2022/02/21 09:26:44;;;;;;;22.88;4.95;;;;;;;4.92;100.00;99626.78;5038434;28;20451;-71
2022/02/21 09:29:11;;;;;;;19.73;3.75;;;;;;;4.95;100.00;99601.13;5041777;28;20132;-70
2022/02/21 09:31:40;;;;;;;16.88;3.90;;;;;;;5.00;100.00;99608.94;5037243;28;20108;-70
2022/02/21 09:34:16;;;;;;;20.73;4.20;;;;;;;4.98;100.00;99614.28;5038619;28;20564;-70
2022/02/21 09:36:44;;;;;;;24.27;4.43;;;;;;;5.01;100.00;99624.75;5038468;28;20270;-70
2022/02/21 09:39:11;;;;;;;19.92;4.53;;;;;;;5.02;100.00;99605.38;5040862;28;20072;-70
2022/02/21 09:41:44;;;;;;;19.38;5.07;;;;;;;5.03;100.00;99585.06;5037269;28;20079;-71
2022/02/21 09:44:12;;;;;;;35.75;4.55;;;;;;;5.00;100.00;99575.44;5041445;28;20055;-72
2022/02/21 09:46:43;;;;;;;20.75;4.60;;;;;;;5.01;100.00;99584.25;5039149;28;20053;-70
2022/02/21 09:49:10;;;;;;;22.60;5.03;;;;;;;4.99;100.00;99615.16;5040619;28;20087;-69
2022/02/21 09:52:03;;;;;;;19.50;4.07;;;;;;;5.07;100.00;99585.84;5038385;28;20245;-69
2022/02/21 09:54:30;;;;;;;23.85;4.40;;;;;;;5.10;100.00;99569.88;5037851;28;20512;-68
2022/02/21 09:56:58;;;;;;;20.58;3.92;;;;;;;5.13;100.00;99570.66;5038072;28;20090;-69
2022/02/21 09:59:36;;;;;;;20.67;4.47;;;;;;;5.20;100.00;99568.69;5041079;28;20091;-68
2022/02/21 10:02:06;;;;;;;28.73;5.25;;;;;;;5.30;100.00;99582.53;5039917;28;20135;-70
2022/02/21 10:04:33;;;;;;;20.40;3.95;;;;;;;5.36;100.00;99604.38;5039271;28;20041;-68
2022/02/21 10:07:02;;;;;;;15.23;4.20;;;;;;;5.39;100.00;99569.00;5040303;28;20091;-68
2022/02/21 10:09:32;;;;;;;20.80;4.80;;;;;;;5.39;100.00;99588.38;5039590;28;20136;-69
2022/02/21 10:12:00;;;;;;;27.48;5.05;;;;;;;5.43;100.00;99570.63;5038534;28;20080;-68
2022/02/21 10:14:30;;;;;;;22.02;5.43;;;;;;;5.47;100.00;99582.88;5036909;28;20179;-70
2022/02/21 10:16:59;;;;;;;17.55;4.70;;;;;;;5.49;100.00;99574.88;5038234;28;20508;-71
2022/02/21 10:19:30;;;;;;;36.88;5.95;;;;;;;5.55;100.00;99591.44;5037904;28;20068;-69
2022/02/21 10:22:01;;;;;;;25.67;4.85;;;;;;;5.56;100.00;99560.53;5036607;28;20160;-69
2022/02/21 10:24:31;;;;;;;28.05;6.00;;;;;;;5.57;100.00;99565.78;5038364;28;20045;-70
2022/02/21 10:27:07;;;;;;;24.92;5.68;;;;;;;5.60;100.00;99591.25;5039415;28;20048;-69
2022/02/21 10:29:46;;;;;;;33.30;6.65;;;;;;;5.68;100.00;99583.09;5040299;28;20099;-69
2022/02/21 10:32:16;;;;;;;25.30;4.95;;;;;;;5.73;100.00;99581.16;5038474;28;20668;-70
2022/02/21 10:34:45;;;;;;;22.23;5.28;;;;;;;5.75;100.00;99590.78;5038077;28;20060;-68
2022/02/21 10:37:19;;;;;;;17.73;4.55;;;;;;;5.77;100.00;99591.63;5037525;28;20048;-69
2022/02/21 10:39:48;;;;;;;19.15;3.42;;;;;;;5.84;100.00;99594.03;5044209;28;20049;-68
2022/02/21 10:42:25;;;;;;;19.02;3.75;;;;;;;5.90;100.00;99607.94;5037708;28;20060;-69
2022/02/21 10:44:54;;;;;;;23.63;5.20;;;;;;;5.87;100.00;99605.41;5039709;28;20068;-68
2022/02/21 10:47:23;;;;;;;21.73;4.25;;;;;;;5.92;100.00;99613.19;5039449;28;20068;-69
2022/02/21 10:49:58;;;;;;;19.00;4.70;;;;;;;5.84;100.00;99592.28;5038911;28;20126;-71
2022/02/21 10:52:31;;;;;;;24.20;6.45;;;;;;;5.84;100.00;99604.63;5034695;28;20060;-70
2022/02/21 10:54:59;;;;;;;20.38;3.72;;;;;;;5.84;100.00;99612.56;5042816;28;20049;-70
2022/02/21 10:57:28;;;;;;;27.60;5.95;;;;;;;5.89;100.00;99611.53;5039080;28;20267;-69
2022/02/21 10:59:56;;;;;;;24.33;5.32;;;;;;;5.98;100.00;99611.25;5042831;28;20139;-69
2022/02/21 11:02:24;;;;;;;20.17;4.22;;;;;;;6.15;100.00;99623.09;5042068;28;20040;-68
2022/02/21 11:04:55;;;;;;;25.48;5.45;;;;;;;6.15;100.00;99600.09;5044831;28;20627;-68
2022/02/21 11:07:26;;;;;;;21.95;5.00;;;;;;;6.19;100.00;99614.09;5040610;28;20318;-68
2022/02/21 11:10:01;;;;;;;16.50;4.57;;;;;;;6.26;100.00;99630.66;5042303;28;20045;-68
2022/02/21 11:12:33;;;;;;;21.40;5.22;;;;;;;6.36;100.00;99621.47;5042771;28;20056;-68
2022/02/21 11:15:02;;;;;;;14.68;3.67;;;;;;;6.44;100.00;99631.84;5041922;28;20394;-68
2022/02/21 11:17:30;;;;;;;24.17;6.50;;;;;;;6.48;100.00;99639.59;5041443;28;20056;-68
2022/02/21 11:19:58;;;;;;;18.85;5.30;;;;;;;6.45;100.00;99636.19;5040414;28;20041;-69
2022/02/21 11:22:28;;;;;;;18.02;4.10;;;;;;;6.44;100.00;99619.44;5043545;28;20772;-69
2022/02/21 11:25:07;;;;;;;19.38;4.07;;;;;;;6.52;100.00;99624.47;5041949;28;20060;-69
2022/02/21 11:27:43;;;;;;;24.05;4.35;;;;;;;6.56;100.00;99638.50;5043385;28;20124;-68
2022/02/21 11:30:14;;;;;;;19.27;5.10;;;;;;;6.60;100.00;99640.13;5040226;28;20041;-68
2022/02/21 11:33:01;;;;;;;16.45;4.60;;;;;;;6.62;100.00;99638.28;5044229;28;20056;-69
2022/02/21 11:35:29;;;;;;;32.83;5.75;;;;;;;6.71;100.00;99641.47;5046679;28;20072;-68
2022/02/21 11:38:04;;;;;;;21.10;4.00;;;;;;;6.79;100.00;99659.75;5043874;28;20056;-69
2022/02/21 11:40:51;;;;;;;26.50;5.75;;;;;;;6.87;100.00;99665.66;5043239;28;20041;-69